Fircrest, WA

12:21 PM PDT on April 21, 2015 (GMT -0700)
30th St West | | Change Station
CLOSE
Current Station
Personal Weather Station
Location: University Place, WA
Elevation: 308 ft
Nearby Weather Stations

Elev 308 ft 47.23 °N, 122.54 °W | Updated 13 seconds ago

Partly Cloudy
Partly Cloudy
60.3 °F
Feels Like 60.3 °F
N
2.7
Wind Variable Wind from SW
Gusts 9.6 mph

Today
High -- | Low -- °F
--% Chance of Precip.
Yesterday
High -- | Low -- °F
Precip. -- in
6:11 AM 8:07 PM
Waxing Crescent, 12% visible
Pressure 29.97 in
Visibility 10.0 miles
Clouds Scattered Clouds 1900 ft
Mostly Cloudy 7500 ft
Dew Point 49 °F
Humidity 66%
Rainfall 0.00 in
Snow Depth Not available.
UV 4 out of 12
Pollen 9.60 out of 12
Air Quality Not available.
Flu Activity Regional
METAR KTIW 211853Z 18008KT 10SM SCT019 BKN075 14/09 A2997 RMK AO2 SLP147 T01390089

More Conditions Fewer Conditions

Pressure 29.97 in
Visibility 10.0 miles
Clouds Scattered Clouds 1900 ft
Mostly Cloudy 7500 ft
Dew Point 49 °F
Humidity 66%
Rainfall 0.00 in
Snow Depth Not available.
UV 4 out of 12
Pollen 9.60 out of 12
Air Quality Not available.
Flu Activity Regional
METAR KTIW 211853Z 18008KT 10SM SCT019 BKN075 14/09 A2997 RMK AO2 SLP147 T01390089

More Conditions Fewer Conditions

10-Day Weather Forecast

Almanac

Astronomy

Apr. 21, 2015 Rise Set
Actual Time
Civil Twilight
Nautical Twilight
Astronomical Twilight
Moon
Length of Visible Light
Length of Day
Tomorrow will be .
, % of the Moon is Illuminated

Today's Extremes

State Highs State Lows

Community

WunderPhotos

Upload Photos

1,815,503 photos uploaded!

WunderBlogs® & News

Nearby

Air Quality

  Air Quality AQ Index Pollutant
Not available.

Snow Depth

Station Depth Elevation

Earthquake Activity

City Distance Mag. Time & Date
Minimum magnitude displayed is 2.5.

Coastal Water Temperatures

Place Temperature

Stations

Nearby Weather Stations

Station Location Temp. Windchill Dew Point Humidity Wind Precip. Elev Updated Type